createdAt,value
2023-04-19T00:00:58.152Z,80.5846
2023-04-19T00:01:59.624Z,80.5135
2023-04-19T00:03:01.332Z,80.6300
2023-04-19T00:04:03.060Z,80.6382
2023-04-19T00:05:05.351Z,80.8339
2023-04-19T00:06:07.097Z,80.6790
2023-04-19T00:07:08.478Z,80.7596
2023-04-19T00:08:09.938Z,80.9035
2023-04-19T00:09:11.304Z,80.8937
2023-04-19T00:10:12.701Z,80.8317
2023-04-19T00:11:14.092Z,80.8073
2023-04-19T00:12:15.476Z,80.5840
2023-04-19T00:13:16.875Z,80.5106
2023-04-19T00:14:18.389Z,80.3547
2023-04-19T00:15:19.918Z,80.4889
2023-04-19T00:16:21.389Z,80.7932
2023-04-19T00:17:22.842Z,80.8294
2023-04-19T00:18:24.329Z,80.7986
2023-04-19T00:19:25.749Z,80.9013
2023-04-19T00:20:27.408Z,80.9600
2023-04-19T00:21:29.080Z,80.9129
2023-04-19T00:22:30.526Z,80.9421
2023-04-19T00:23:31.997Z,80.9111
2023-04-19T00:24:33.436Z,80.8416
2023-04-19T00:25:34.890Z,80.8654
2023-04-19T00:26:36.282Z,81.0289
2023-04-19T00:27:37.638Z,81.1467
2023-04-19T00:28:39.034Z,81.3382
2023-04-19T00:29:40.422Z,81.3454
2023-04-19T00:30:41.855Z,81.0455
2023-04-19T00:31:43.255Z,81.0033
2023-04-19T00:32:44.674Z,80.8921
2023-04-19T00:33:46.027Z,80.9329
2023-04-19T00:34:47.414Z,81.1160
2023-04-19T00:35:48.753Z,81.2368
2023-04-19T00:36:50.144Z,81.1540
2023-04-19T00:37:51.548Z,81.2195
2023-04-19T00:38:52.959Z,81.2580
2023-04-19T00:39:54.344Z,81.4091
2023-04-19T00:40:55.730Z,81.3885
2023-04-19T00:41:57.072Z,81.3998
2023-04-19T00:42:58.478Z,81.3846
2023-04-19T00:43:59.841Z,81.3528
2023-04-19T00:45:01.409Z,81.2774
2023-04-19T00:46:02.838Z,81.2110
2023-04-19T00:47:04.226Z,81.2995
2023-04-19T00:48:05.865Z,81.3663
2023-04-19T00:49:07.213Z,81.1335
2023-04-19T00:50:08.610Z,81.0763
2023-04-19T00:51:09.983Z,81.0695
2023-04-19T00:52:11.400Z,81.2054
2023-04-19T00:53:12.801Z,81.2597
2023-04-19T00:54:14.443Z,80.9587
2023-04-19T00:55:16.298Z,80.9961
2023-04-19T00:56:17.697Z,81.1678
2023-04-19T00:57:19.060Z,81.2024
2023-04-19T00:58:20.412Z,81.0686
2023-04-19T00:59:21.756Z,81.3303
2023-04-19T01:00:23.145Z,81.4621
2023-04-19T01:01:24.510Z,81.4184
2023-04-19T01:02:25.930Z,81.4930
2023-04-19T01:03:27.889Z,81.5905
2023-04-19T01:04:29.734Z,81.7635
2023-04-19T01:05:31.153Z,81.7269
2023-04-19T01:06:32.508Z,81.7532
2023-04-19T01:07:33.944Z,81.5464
2023-04-19T01:08:35.309Z,81.6241
2023-04-19T01:09:36.708Z,81.5236
2023-04-19T01:10:38.045Z,81.5461
2023-04-19T01:11:40.782Z,81.7396
2023-04-19T01:12:41.436Z,81.8070
2023-04-19T01:13:42.803Z,81.7973
2023-04-19T01:14:44.202Z,82.0128
2023-04-19T01:15:45.620Z,82.1633
2023-04-19T01:16:46.995Z,82.0149
2023-04-19T01:17:48.399Z,82.0714
2023-04-19T01:18:49.808Z,82.1233
2023-04-19T01:19:51.202Z,82.2487
2023-04-19T01:20:52.589Z,82.2153
2023-04-19T01:21:54.038Z,82.1187
2023-04-19T01:22:55.393Z,82.0488
2023-04-19T01:23:56.973Z,82.2031
2023-04-19T01:24:58.365Z,82.2909
2023-04-19T01:25:59.885Z,82.2680
2023-04-19T01:27:01.317Z,82.3221
2023-04-19T01:28:02.814Z,82.3232
2023-04-19T01:29:04.230Z,82.2182
2023-04-19T01:30:05.573Z,82.2863
2023-04-19T01:31:06.960Z,82.3226
2023-04-19T01:32:08.277Z,82.2273
2023-04-19T01:33:09.618Z,82.2612
2023-04-19T01:34:10.983Z,82.3604
2023-04-19T01:35:12.328Z,82.2112
2023-04-19T01:36:13.673Z,82.0892
2023-04-19T01:37:15.010Z,82.0066
2023-04-19T01:38:16.497Z,82.1308
2023-04-19T01:39:18.870Z,82.2393
2023-04-19T01:40:20.301Z,82.2457
2023-04-19T01:41:21.643Z,82.1184
2023-04-19T01:42:23.101Z,82.2432
2023-04-19T01:43:24.522Z,82.3193
2023-04-19T01:44:25.913Z,82.4219
2023-04-19T01:45:27.315Z,82.3275
2023-04-19T01:46:28.888Z,82.3445
2023-04-19T01:47:30.308Z,82.4291
2023-04-19T01:48:31.758Z,82.4558
2023-04-19T01:49:33.146Z,82.4053
2023-04-19T01:50:34.591Z,82.3060
2023-04-19T01:51:36.013Z,82.3468
2023-04-19T01:52:37.485Z,82.5901
2023-04-19T01:53:38.920Z,82.6828
2023-04-19T01:54:40.287Z,82.7184
2023-04-19T01:55:41.742Z,82.7598
2023-04-19T01:56:43.209Z,82.6774
2023-04-19T01:57:44.609Z,82.5862
2023-04-19T01:58:46.057Z,82.5886
2023-04-19T01:59:47.430Z,82.7369
2023-04-19T02:00:48.919Z,82.8248
2023-04-19T02:01:50.348Z,82.7957
2023-04-19T02:02:51.989Z,82.7732
2023-04-19T02:03:53.598Z,82.8986
2023-04-19T02:04:55.526Z,82.8079
2023-04-19T02:05:56.963Z,82.7538
2023-04-19T02:06:58.431Z,82.7527
2023-04-19T02:07:59.876Z,82.8240
2023-04-19T02:09:01.258Z,82.7626
2023-04-19T02:10:02.773Z,82.7394
2023-04-19T02:11:04.221Z,82.6753
2023-04-19T02:12:05.623Z,82.6591
2023-04-19T02:13:07.139Z,82.6222
2023-04-19T02:14:08.542Z,82.6230
2023-04-19T02:15:09.969Z,82.6546
2023-04-19T02:16:11.550Z,82.6692
2023-04-19T02:17:13.037Z,82.7181
2023-04-19T02:18:14.423Z,82.5395
2023-04-19T02:19:15.875Z,82.7137
2023-04-19T02:20:17.299Z,82.7552
2023-04-19T02:21:18.724Z,82.8777
2023-04-19T02:22:20.147Z,82.7442
2023-04-19T02:23:21.608Z,82.5046
2023-04-19T02:24:23.014Z,82.5112
2023-04-19T02:25:24.467Z,82.4857
2023-04-19T02:26:26.030Z,82.6938
2023-04-19T02:27:27.489Z,82.8435
2023-04-19T02:28:28.888Z,82.7627
2023-04-19T02:29:30.382Z,82.7400
2023-04-19T02:30:31.858Z,82.6551
2023-04-19T02:31:33.300Z,82.7102
2023-04-19T02:32:34.790Z,82.8202
2023-04-19T02:33:36.127Z,82.8284
2023-04-19T02:34:37.599Z,82.8646
2023-04-19T02:35:38.966Z,82.8013
2023-04-19T02:36:40.347Z,82.9376
2023-04-19T02:37:41.829Z,82.8626
2023-04-19T02:38:43.190Z,82.7423
2023-04-19T02:39:44.595Z,82.7728
2023-04-19T02:40:46.035Z,82.8177
2023-04-19T02:41:47.558Z,82.8115
2023-04-19T02:42:48.963Z,82.6782
2023-04-19T02:43:50.411Z,82.4947
2023-04-19T02:44:51.995Z,82.4775
2023-04-19T02:45:53.476Z,82.5851
2023-04-19T02:46:54.893Z,82.3938
2023-04-19T02:47:56.369Z,82.3257
2023-04-19T02:48:57.939Z,82.4635
2023-04-19T02:49:59.328Z,82.4828
2023-04-19T02:51:00.773Z,82.6247
2023-04-19T02:52:02.241Z,82.7089
2023-04-19T02:53:03.785Z,82.8280
2023-04-19T02:54:05.273Z,82.9083
2023-04-19T02:55:06.659Z,83.0876
2023-04-19T02:56:08.073Z,82.9778
2023-04-19T02:57:09.526Z,82.7054
2023-04-19T02:58:10.921Z,82.6918
2023-04-19T02:59:12.370Z,82.7487
2023-04-19T03:00:13.861Z,82.6166
2023-04-19T03:01:15.643Z,82.7005
2023-04-19T03:02:17.118Z,82.6092
2023-04-19T03:03:18.593Z,82.7160
2023-04-19T03:04:19.998Z,82.7767
2023-04-19T03:05:21.445Z,82.8445
2023-04-19T03:06:22.858Z,83.0075
2023-04-19T03:07:24.378Z,83.1238
2023-04-19T03:08:25.799Z,83.1968
2023-04-19T03:09:27.227Z,83.2190
2023-04-19T03:10:28.685Z,83.2222
2023-04-19T03:11:30.091Z,83.2416
2023-04-19T03:12:31.473Z,83.3851
2023-04-19T03:13:32.968Z,83.3466
2023-04-19T03:14:34.362Z,83.4907
2023-04-19T03:15:35.815Z,83.5724
2023-04-19T03:16:37.252Z,83.6478
2023-04-19T03:17:38.697Z,83.6022
2023-04-19T03:18:40.131Z,83.5582
2023-04-19T03:19:41.609Z,83.4433
2023-04-19T03:20:43.058Z,83.3813
2023-04-19T03:21:44.519Z,83.4580
2023-04-19T03:22:45.982Z,83.6765
2023-04-19T03:23:47.380Z,83.8056
2023-04-19T03:24:48.787Z,83.7505
2023-04-19T03:25:50.250Z,83.5475
2023-04-19T03:26:51.725Z,83.5519
2023-04-19T03:27:53.155Z,83.6387
2023-04-19T03:28:54.660Z,83.6309
2023-04-19T03:29:56.179Z,83.6196
2023-04-19T03:30:57.676Z,83.5558
2023-04-19T03:31:59.113Z,83.7326
2023-04-19T03:33:00.520Z,83.7145
2023-04-19T03:34:01.940Z,83.7059
2023-04-19T03:35:03.348Z,83.6701
2023-04-19T03:36:04.797Z,83.5986
2023-04-19T03:37:06.190Z,83.6851
2023-04-19T03:38:07.632Z,83.7692
2023-04-19T03:39:09.082Z,83.6196
2023-04-19T03:40:10.503Z,83.7143
2023-04-19T03:41:11.949Z,83.8766
2023-04-19T03:42:13.420Z,83.8651
2023-04-19T03:43:14.839Z,83.7497
2023-04-19T03:44:16.432Z,83.6291
2023-04-19T03:45:18.194Z,83.5187
2023-04-19T03:46:19.649Z,83.4651
2023-04-19T03:47:21.253Z,83.4211
2023-04-19T03:48:22.837Z,83.3425
2023-04-19T03:49:24.294Z,83.5347
2023-04-19T03:50:25.737Z,83.5855
2023-04-19T03:51:27.158Z,83.7305
2023-04-19T03:52:28.567Z,83.7068
2023-04-19T03:53:29.970Z,83.6216
2023-04-19T03:54:31.375Z,83.5557
2023-04-19T03:55:32.841Z,83.6460
2023-04-19T03:56:34.438Z,83.5985
2023-04-19T03:57:35.863Z,83.5640
2023-04-19T03:58:37.381Z,83.4890
2023-04-19T03:59:38.800Z,83.4939
2023-04-19T04:00:40.258Z,83.4760
2023-04-19T04:01:41.895Z,83.3424
2023-04-19T04:02:43.837Z,83.3555
2023-04-19T04:03:45.634Z,83.3200
2023-04-19T04:04:47.486Z,83.3154
2023-04-19T04:05:48.929Z,83.3856
2023-04-19T04:06:50.406Z,83.3448
2023-04-19T04:07:51.808Z,83.5112
2023-04-19T04:08:53.199Z,83.5837
2023-04-19T04:09:54.618Z,83.5455
2023-04-19T04:10:56.026Z,83.5771
2023-04-19T04:11:57.410Z,83.4660
2023-04-19T04:12:58.899Z,83.3846
2023-04-19T04:14:00.392Z,83.3620
2023-04-19T04:15:01.863Z,83.3144
2023-04-19T04:16:03.290Z,83.4343
2023-04-19T04:17:04.716Z,83.4143
2023-04-19T04:18:08.566Z,83.5126
2023-04-19T04:19:07.910Z,83.4463
2023-04-19T04:20:09.328Z,83.4075
2023-04-19T04:21:10.717Z,83.4962
2023-04-19T04:22:12.163Z,83.6092
2023-04-19T04:23:13.566Z,83.6559
2023-04-19T04:24:15.144Z,83.6570
2023-04-19T04:25:16.686Z,83.4916
2023-04-19T04:26:18.086Z,83.3563
2023-04-19T04:27:19.584Z,83.1514
2023-04-19T04:28:21.274Z,83.3519
2023-04-19T04:29:22.735Z,83.4290
2023-04-19T04:30:26.554Z,83.5647
2023-04-19T04:31:24.258Z,83.4147
2023-04-19T04:32:25.750Z,83.3146
2023-04-19T04:33:27.232Z,83.3860
2023-04-19T04:34:28.724Z,83.2784
2023-04-19T04:35:30.199Z,83.3028
2023-04-19T04:36:31.645Z,83.2172
2023-04-19T04:37:33.084Z,83.2222
2023-04-19T04:38:34.576Z,83.1644
2023-04-19T04:39:35.978Z,83.0724
2023-04-19T04:40:37.383Z,83.0829
2023-04-19T04:41:38.828Z,83.1923
2023-04-19T04:42:40.295Z,83.1712
2023-04-19T04:43:41.944Z,83.0833
2023-04-19T04:44:43.381Z,83.0252
2023-04-19T04:45:44.862Z,83.1778
2023-04-19T04:46:46.331Z,83.1649
2023-04-19T04:47:47.806Z,83.0830
2023-04-19T04:48:49.279Z,83.0290
2023-04-19T04:49:50.696Z,82.9754
2023-04-19T04:50:52.113Z,82.8609
2023-04-19T04:51:53.560Z,83.0119
2023-04-19T04:52:54.972Z,83.0598
2023-04-19T04:53:56.516Z,83.1174
2023-04-19T04:54:57.978Z,83.1006
2023-04-19T04:55:59.672Z,83.1142
2023-04-19T04:57:01.189Z,83.0428
2023-04-19T04:58:02.614Z,82.9678
2023-04-19T04:59:04.000Z,82.9780
2023-04-19T05:00:05.435Z,83.0980
2023-04-19T05:01:06.888Z,83.0631
2023-04-19T05:02:08.469Z,82.8963
2023-04-19T05:03:10.060Z,82.7204
2023-04-19T05:04:11.587Z,82.6182
2023-04-19T05:05:13.086Z,82.5065
2023-04-19T05:06:14.501Z,82.5019
2023-04-19T05:07:16.173Z,82.5141
2023-04-19T05:08:17.594Z,82.5219
2023-04-19T05:09:18.998Z,82.4812
2023-04-19T05:10:20.457Z,82.3111
2023-04-19T05:11:21.885Z,82.2256
2023-04-19T05:12:23.367Z,82.2625
2023-04-19T05:13:24.829Z,82.0565
2023-04-19T05:14:26.280Z,82.0600
2023-04-19T05:15:27.709Z,82.2598
2023-04-19T05:16:29.310Z,82.2965
2023-04-19T05:17:30.825Z,82.2158
2023-04-19T05:18:32.213Z,82.3480
2023-04-19T05:19:33.654Z,82.3596
2023-04-19T05:20:35.089Z,82.2567
2023-04-19T05:21:36.577Z,82.2270
2023-04-19T05:22:37.978Z,82.2847
2023-04-19T05:23:39.453Z,82.3238
2023-04-19T05:24:42.375Z,82.2900
2023-04-19T05:25:41.485Z,82.5523
2023-04-19T05:26:42.883Z,82.6355
2023-04-19T05:27:44.308Z,82.7093
2023-04-19T05:28:45.754Z,82.7375
2023-04-19T05:29:47.175Z,82.6274
2023-04-19T05:30:48.660Z,82.4446
2023-04-19T05:31:50.101Z,82.2571
2023-04-19T05:32:51.554Z,82.0398
2023-04-19T05:33:53.047Z,81.9999
2023-04-19T05:34:54.529Z,81.9451
2023-04-19T05:35:55.947Z,81.9394
2023-04-19T05:36:57.397Z,82.1735
2023-04-19T05:37:58.821Z,82.0845
2023-04-19T05:39:00.220Z,81.9819
2023-04-19T05:40:01.667Z,82.1139
2023-04-19T05:41:03.048Z,82.2207
2023-04-19T05:42:04.462Z,82.1499
2023-04-19T05:43:05.870Z,82.1669
2023-04-19T05:44:07.281Z,82.2328
2023-04-19T05:45:08.679Z,82.0797
2023-04-19T05:46:10.165Z,82.1754
2023-04-19T05:47:11.596Z,82.1700
2023-04-19T05:48:12.987Z,82.0834
2023-04-19T05:49:14.450Z,82.0585
2023-04-19T05:50:15.845Z,81.9146
2023-04-19T05:51:17.284Z,81.8211
2023-04-19T05:52:18.686Z,81.9817
2023-04-19T05:53:20.097Z,82.1135
2023-04-19T05:54:21.505Z,82.0683
2023-04-19T05:55:23.009Z,81.9548
2023-04-19T05:56:24.440Z,81.8745
2023-04-19T05:57:25.825Z,81.9817
2023-04-19T05:58:27.254Z,81.9769
2023-04-19T05:59:28.683Z,81.7935
2023-04-19T06:00:30.083Z,81.6960
2023-04-19T06:01:31.514Z,81.6640
2023-04-19T06:02:33.133Z,81.8130
2023-04-19T06:03:34.953Z,81.8691
2023-04-19T06:04:37.375Z,81.9356
2023-04-19T06:05:39.378Z,81.7819
2023-04-19T06:06:40.801Z,81.8318
2023-04-19T06:07:47.246Z,81.9406
2023-04-19T06:08:44.282Z,81.9201
2023-04-19T06:09:45.693Z,81.8869
2023-04-19T06:10:54.510Z,81.8865
2023-04-19T06:11:51.201Z,81.6826
2023-04-19T06:12:50.518Z,81.5423
2023-04-19T06:13:51.970Z,81.4915
2023-04-19T06:14:53.399Z,81.6614
2023-04-19T06:15:54.919Z,81.4489
2023-04-19T06:16:56.304Z,81.2426
2023-04-19T06:17:59.776Z,81.3294
2023-04-19T06:18:58.881Z,80.8893
2023-04-19T06:20:00.365Z,81.0908
2023-04-19T06:21:01.775Z,81.0783
2023-04-19T06:22:03.194Z,81.2262
2023-04-19T06:23:04.614Z,81.2924
2023-04-19T06:24:06.076Z,80.8254
2023-04-19T06:25:07.521Z,80.5693
2023-04-19T06:26:09.047Z,80.7825
2023-04-19T06:27:10.479Z,80.8000
2023-04-19T06:28:11.882Z,80.9696
2023-04-19T06:29:13.277Z,81.0036
2023-04-19T06:30:14.706Z,80.9922
2023-04-19T06:31:16.099Z,80.8792
2023-04-19T06:32:17.580Z,80.7144
2023-04-19T06:33:18.995Z,80.7716
2023-04-19T06:34:20.412Z,80.7847
2023-04-19T06:35:21.811Z,80.7675
2023-04-19T06:36:23.239Z,80.7120
2023-04-19T06:37:24.691Z,80.5043
2023-04-19T06:38:26.130Z,80.4965
2023-04-19T06:39:27.548Z,80.4342
2023-04-19T06:40:29.036Z,80.4242
2023-04-19T06:41:30.530Z,80.4326
2023-04-19T06:42:31.982Z,80.3775
2023-04-19T06:43:33.398Z,80.3598
2023-04-19T06:44:34.943Z,80.4897
2023-04-19T06:45:36.456Z,80.4087
2023-04-19T06:46:37.894Z,80.4168
2023-04-19T06:47:39.366Z,80.1389
2023-04-19T06:48:40.803Z,80.1406
2023-04-19T06:49:42.369Z,80.1250
2023-04-19T06:50:43.835Z,79.8649
2023-04-19T06:51:45.278Z,79.8751
2023-04-19T06:52:46.751Z,80.1051
2023-04-19T06:53:48.202Z,79.8276
2023-04-19T06:54:49.816Z,79.7693
2023-04-19T06:55:51.261Z,79.6621
2023-04-19T06:56:52.727Z,79.5983
2023-04-19T06:57:54.229Z,79.6779
2023-04-19T06:58:55.680Z,79.6303
2023-04-19T06:59:57.154Z,79.6266
2023-04-19T07:00:58.674Z,79.6027
2023-04-19T07:02:00.213Z,79.9086
2023-04-19T07:03:01.869Z,80.1004
2023-04-19T07:04:03.874Z,79.9302
2023-04-19T07:05:06.093Z,79.7515
2023-04-19T07:06:07.519Z,79.7430
2023-04-19T07:07:08.942Z,79.9388
2023-04-19T07:08:10.394Z,79.8120
2023-04-19T07:09:11.836Z,79.8558
2023-04-19T07:10:13.318Z,79.9906
2023-04-19T07:11:14.756Z,79.7613
2023-04-19T07:12:16.266Z,79.8241
2023-04-19T07:13:17.718Z,79.8237
2023-04-19T07:14:19.334Z,80.0470
2023-04-19T07:15:20.797Z,79.9697
2023-04-19T07:16:22.464Z,80.1972
2023-04-19T07:17:24.010Z,80.2967
2023-04-19T07:18:25.565Z,80.2562
2023-04-19T07:19:27.059Z,80.1965
2023-04-19T07:20:28.720Z,80.1065
2023-04-19T07:21:30.248Z,79.8663
2023-04-19T07:22:31.774Z,79.8990
2023-04-19T07:23:33.243Z,79.8533
2023-04-19T07:24:34.663Z,80.1564
2023-04-19T07:25:36.125Z,80.1075
2023-04-19T07:26:37.630Z,79.7348
2023-04-19T07:27:39.043Z,79.3540
2023-04-19T07:28:40.509Z,79.2272
2023-04-19T07:29:41.989Z,79.3522
2023-04-19T07:30:43.450Z,79.5534
2023-04-19T07:31:44.947Z,79.5727
2023-04-19T07:32:46.555Z,79.7653
2023-04-19T07:33:48.094Z,79.6904
2023-04-19T07:34:49.561Z,79.5104
2023-04-19T07:35:51.221Z,79.3179
2023-04-19T07:36:52.714Z,79.1175
2023-04-19T07:37:57.264Z,79.1972
2023-04-19T07:38:58.901Z,79.1372
2023-04-19T07:40:01.238Z,79.2145
2023-04-19T07:41:02.751Z,79.4400
2023-04-19T07:42:04.259Z,79.5254
2023-04-19T07:43:05.796Z,79.4622
2023-04-19T07:44:07.356Z,79.2811
2023-04-19T07:45:08.809Z,79.3407
2023-04-19T07:46:10.299Z,79.5244
2023-04-19T07:47:11.758Z,79.4025
2023-04-19T07:48:13.251Z,79.0634
2023-04-19T07:49:14.713Z,79.0971
2023-04-19T07:50:16.297Z,79.1949
2023-04-19T07:51:17.831Z,79.3689
2023-04-19T07:52:19.272Z,79.5575
2023-04-19T07:53:20.721Z,79.2569
2023-04-19T07:54:22.137Z,79.1765
2023-04-19T07:55:23.648Z,79.1332
2023-04-19T07:56:25.091Z,79.0556
2023-04-19T07:57:26.618Z,79.0406
2023-04-19T07:58:28.090Z,79.1898
2023-04-19T07:59:29.602Z,78.9228
2023-04-19T08:00:31.023Z,79.0011
2023-04-19T08:01:32.840Z,78.8731
2023-04-19T08:02:34.787Z,78.8106
2023-04-19T08:03:36.481Z,78.7356
2023-04-19T08:04:38.548Z,78.7028
2023-04-19T08:05:40.417Z,78.8021
2023-04-19T08:06:41.975Z,78.9960
2023-04-19T08:07:43.478Z,78.8475
2023-04-19T08:08:44.930Z,78.9333
2023-04-19T08:09:46.476Z,78.8400
2023-04-19T08:10:47.932Z,78.7502
2023-04-19T08:11:49.447Z,78.4935
2023-04-19T08:14:04.558Z,78.2472
2023-04-19T08:15:02.661Z,78.3924
2023-04-19T08:17:22.050Z,78.0654
2023-04-19T08:18:01.119Z,77.8871
2023-04-19T08:19:02.608Z,78.0690
2023-04-19T08:20:04.100Z,78.0002
2023-04-19T08:21:05.538Z,77.4387
2023-04-19T08:22:07.014Z,77.2664
2023-04-19T08:23:20.363Z,77.6601
2023-04-19T08:24:10.483Z,77.7641
2023-04-19T08:25:11.900Z,77.4436
2023-04-19T08:26:13.378Z,77.4603
2023-04-19T08:27:14.881Z,77.3287
2023-04-19T08:28:16.354Z,77.1751
2023-04-19T08:29:17.945Z,77.0861
2023-04-19T08:30:19.595Z,76.8360
2023-04-19T08:31:21.056Z,76.5925
2023-04-19T08:32:22.552Z,76.5048
2023-04-19T08:33:24.040Z,76.2936
2023-04-19T08:34:25.469Z,76.3315
2023-04-19T08:35:26.908Z,76.6648
2023-04-19T08:36:37.104Z,76.4192
2023-04-19T08:37:30.451Z,76.3317
2023-04-19T08:38:31.975Z,76.2962
2023-04-19T08:39:34.262Z,76.1838
2023-04-19T08:40:33.545Z,76.2395
2023-04-19T08:41:34.999Z,76.1431
2023-04-19T08:42:37.249Z,75.9406
2023-04-19T08:43:40.486Z,76.1051
2023-04-19T08:44:53.795Z,75.6784
2023-04-19T08:45:43.007Z,75.7166
2023-04-19T08:46:44.421Z,75.8691
2023-04-19T08:47:58.665Z,75.8327
2023-04-19T08:48:47.942Z,75.7814
2023-04-19T08:49:56.300Z,75.7004
2023-04-19T08:51:04.446Z,75.8696
2023-04-19T08:51:53.494Z,76.0901
2023-04-19T08:52:59.053Z,76.0553
2023-04-19T08:53:56.975Z,75.8485
2023-04-19T08:54:58.471Z,75.9006
2023-04-19T08:56:10.023Z,75.8844
2023-04-19T08:57:01.958Z,75.7097
2023-04-19T08:58:04.197Z,75.9351
2023-04-19T08:59:19.253Z,75.9271
2023-04-19T09:00:06.619Z,75.8143
2023-04-19T09:01:08.301Z,75.8476
2023-04-19T09:02:08.733Z,75.8898
2023-04-19T09:03:10.646Z,75.9336
2023-04-19T09:05:13.378Z,76.5577
2023-04-19T09:06:15.293Z,76.5494
2023-04-19T09:07:16.842Z,76.4070
2023-04-19T09:08:18.297Z,76.3643
2023-04-19T09:10:21.576Z,76.5216
2023-04-19T09:11:23.085Z,76.4069
2023-04-19T09:12:24.537Z,76.3667
2023-04-19T09:13:26.032Z,76.0494
2023-04-19T09:14:27.467Z,75.9066
2023-04-19T09:15:28.940Z,75.9866
2023-04-19T09:16:30.414Z,75.9371
2023-04-19T09:17:31.888Z,75.5231
2023-04-19T09:18:35.933Z,75.2139
2023-04-19T09:19:35.372Z,74.7331
2023-04-19T09:20:36.840Z,74.3540
2023-04-19T09:21:38.270Z,73.7356
2023-04-19T09:22:39.684Z,73.7019
2023-04-19T09:23:41.148Z,73.4714
2023-04-19T09:26:06.280Z,73.5704
2023-04-19T09:26:46.233Z,73.4796
2023-04-19T09:27:47.669Z,73.5671
2023-04-19T09:28:49.081Z,73.5281
2023-04-19T09:29:50.496Z,73.8715
2023-04-19T09:31:00.668Z,73.7197
2023-04-19T09:31:54.092Z,74.1294
2023-04-19T09:32:55.568Z,74.4359
2023-04-19T09:33:56.983Z,74.5213
2023-04-19T09:34:58.454Z,74.3541
2023-04-19T09:35:59.902Z,74.1563
2023-04-19T09:37:12.177Z,73.9475
2023-04-19T09:38:06.721Z,73.8821
2023-04-19T09:39:05.934Z,74.0746
2023-04-19T09:40:07.381Z,74.0144
2023-04-19T09:41:08.800Z,74.0183
2023-04-19T09:42:10.260Z,73.5021
2023-04-19T09:44:50.198Z,73.1670
2023-04-19T09:46:17.344Z,72.5435
2023-04-19T09:47:18.716Z,72.8993
2023-04-19T09:48:20.159Z,73.1685
2023-04-19T09:49:33.547Z,72.9680
2023-04-19T09:50:27.288Z,73.0377
2023-04-19T09:51:23.753Z,72.9213
2023-04-19T09:52:25.150Z,73.0061
2023-04-19T09:53:26.528Z,72.9022
2023-04-19T09:54:27.941Z,72.8676
2023-04-19T09:55:31.721Z,72.9325
2023-04-19T09:56:31.350Z,72.6533
2023-04-19T09:57:32.766Z,72.2874
2023-04-19T09:59:35.919Z,72.8368
2023-04-19T10:00:47.996Z,72.9728
2023-04-19T10:01:39.368Z,73.2203
2023-04-19T10:02:40.949Z,72.9796
2023-04-19T10:03:42.619Z,72.6899
2023-04-19T10:05:46.317Z,72.2762
2023-04-19T10:07:07.403Z,72.6762
2023-04-19T10:07:49.874Z,72.7865
2023-04-19T10:08:51.621Z,72.8629
2023-04-19T10:09:55.023Z,73.3412
2023-04-19T10:10:55.236Z,73.4661
2023-04-19T10:12:03.764Z,73.1620
2023-04-19T10:13:15.891Z,72.8072
2023-04-19T10:14:00.900Z,72.7146
2023-04-19T10:15:02.313Z,72.8613
2023-04-19T10:16:15.502Z,73.0481
2023-04-19T10:17:05.794Z,72.9109
2023-04-19T10:18:07.413Z,72.9837
2023-04-19T10:19:10.054Z,72.6349
2023-04-19T10:20:09.224Z,72.8940
2023-04-19T10:21:10.608Z,72.8997
2023-04-19T10:22:11.990Z,72.8070
2023-04-19T10:23:13.487Z,72.6532
2023-04-19T10:24:14.893Z,72.8906
2023-04-19T10:25:16.356Z,72.8600
2023-04-19T10:26:17.765Z,72.7812
2023-04-19T10:27:19.216Z,72.5868
2023-04-19T10:28:20.647Z,72.3579
2023-04-19T10:29:22.074Z,71.8705
2023-04-19T10:30:23.517Z,71.8990
2023-04-19T10:31:24.912Z,71.7615
2023-04-19T10:32:26.380Z,71.4013
2023-04-19T10:33:27.898Z,71.4067
2023-04-19T10:34:29.350Z,71.0201
2023-04-19T10:35:30.753Z,70.5474
2023-04-19T10:36:32.189Z,70.5653
2023-04-19T10:37:33.793Z,71.0871
2023-04-19T10:38:35.329Z,71.2075
2023-04-19T10:39:36.794Z,71.2363
2023-04-19T10:40:38.178Z,70.9094
2023-04-19T10:41:39.654Z,70.6126
2023-04-19T10:42:41.037Z,70.9424
2023-04-19T10:43:42.477Z,71.6329
2023-04-19T10:44:43.866Z,72.1362
2023-04-19T10:45:45.313Z,72.4538
2023-04-19T10:46:46.707Z,72.6082
2023-04-19T10:47:48.195Z,72.4191
2023-04-19T10:48:49.701Z,72.7243
2023-04-19T10:49:51.181Z,73.5827
2023-04-19T10:50:52.634Z,73.4829
2023-04-19T10:51:54.059Z,73.4823
2023-04-19T10:52:55.484Z,73.3617
2023-04-19T10:53:56.940Z,73.6615
2023-04-19T10:54:58.374Z,73.3223
2023-04-19T10:55:59.779Z,72.8009
2023-04-19T10:57:01.201Z,72.4655
2023-04-19T10:58:02.602Z,72.4019
2023-04-19T10:59:04.036Z,72.2748
2023-04-19T11:00:05.471Z,72.2105
2023-04-19T11:01:06.889Z,72.4863
2023-04-19T11:02:08.395Z,72.5324
2023-04-19T11:03:10.086Z,72.5838
2023-04-19T11:04:11.902Z,72.4726
2023-04-19T11:05:13.603Z,72.5553
2023-04-19T11:06:15.014Z,72.7613
2023-04-19T11:07:16.386Z,72.6118
2023-04-19T11:08:17.799Z,72.2763
2023-04-19T11:09:19.260Z,72.3731
2023-04-19T11:10:20.719Z,72.0288
2023-04-19T11:11:22.143Z,71.7759
2023-04-19T11:12:23.597Z,72.0325
2023-04-19T11:13:25.039Z,71.7909
2023-04-19T11:14:26.493Z,71.5708
2023-04-19T11:15:27.969Z,71.8492
2023-04-19T11:16:42.434Z,71.9518
2023-04-19T11:17:31.598Z,71.8030
2023-04-19T11:18:33.301Z,71.5044
2023-04-19T11:19:34.683Z,71.3824
2023-04-19T11:20:36.157Z,71.2827
2023-04-19T11:21:37.554Z,70.9960
2023-04-19T11:22:39.052Z,71.6901
2023-04-19T11:23:40.455Z,71.9600
2023-04-19T11:24:41.873Z,71.6024
2023-04-19T11:25:43.296Z,70.9816
2023-04-19T11:26:44.752Z,70.6004
2023-04-19T11:27:46.230Z,70.5113
2023-04-19T11:28:47.680Z,70.1851
2023-04-19T11:29:49.135Z,70.1654
2023-04-19T11:30:50.622Z,69.8465
2023-04-19T11:31:52.137Z,69.4287
2023-04-19T11:32:53.666Z,69.1530
2023-04-19T11:33:55.439Z,69.3485
2023-04-19T11:34:57.069Z,69.5696
2023-04-19T11:35:58.509Z,69.5757
2023-04-19T11:36:59.938Z,69.8255
2023-04-19T11:38:01.428Z,69.8290
2023-04-19T11:39:02.898Z,70.1316
2023-04-19T11:40:05.104Z,70.5299
2023-04-19T11:41:06.908Z,71.1670
2023-04-19T11:42:08.340Z,70.9427
2023-04-19T11:43:09.710Z,70.8911
2023-04-19T11:44:11.159Z,70.7962
2023-04-19T11:45:25.897Z,70.8445
2023-04-19T11:46:14.737Z,70.9597
2023-04-19T11:47:16.251Z,71.1147
2023-04-19T11:48:17.888Z,71.4070
2023-04-19T11:49:19.348Z,71.2405
2023-04-19T11:50:20.831Z,71.1950
2023-04-19T11:51:22.460Z,71.0699
2023-04-19T11:52:23.913Z,70.9870
2023-04-19T11:53:25.371Z,71.1130
2023-04-19T11:54:26.854Z,71.1086
2023-04-19T11:55:28.272Z,70.7777
2023-04-19T11:56:29.732Z,70.6820
2023-04-19T11:57:31.183Z,70.4598
2023-04-19T11:58:32.617Z,70.5792
2023-04-19T11:59:34.064Z,70.5724
2023-04-19T12:00:35.524Z,70.6091
2023-04-19T12:01:36.918Z,70.3422
2023-04-19T12:02:38.610Z,70.1547
2023-04-19T12:03:40.335Z,70.0607
2023-04-19T12:04:42.205Z,69.7845
2023-04-19T12:05:44.146Z,69.8131
2023-04-19T12:06:45.666Z,69.9909
2023-04-19T12:07:47.124Z,69.6543
2023-04-19T12:08:48.575Z,69.1612
2023-04-19T12:09:50.032Z,68.9000
2023-04-19T12:10:51.519Z,68.7554
2023-04-19T12:11:52.940Z,68.5238
2023-04-19T12:12:54.383Z,68.5829
2023-04-19T12:13:55.813Z,68.8141
2023-04-19T12:14:57.289Z,69.4688
2023-04-19T12:15:58.758Z,69.3491
2023-04-19T12:17:00.322Z,69.0811
2023-04-19T12:18:01.876Z,68.7503
2023-04-19T12:19:03.476Z,68.7680
2023-04-19T12:20:05.027Z,68.7464
2023-04-19T12:21:06.465Z,68.5957
2023-04-19T12:22:07.921Z,68.9423
2023-04-19T12:23:09.401Z,69.1475
2023-04-19T12:24:10.918Z,69.2824
2023-04-19T12:25:12.404Z,69.4144
2023-04-19T12:26:13.839Z,69.2539
2023-04-19T12:27:15.359Z,69.3622
2023-04-19T12:28:16.836Z,69.2812
2023-04-19T12:29:18.385Z,69.3252
2023-04-19T12:30:19.836Z,69.5005
2023-04-19T12:31:21.250Z,69.5518
2023-04-19T12:32:22.733Z,69.6436
2023-04-19T12:33:24.240Z,69.8442